Time;durP1;ratioP1;P1;durP2;ratioP2;P2;SDS_P1;SDS_P2;PMS_P1;PMS_P2;Temp;Humidity;BMP_temperature;BMP_pressure;BME280_temperature;BME280_humidity;BME280_pressure;Samples;Min_cycle;Max_cycle;Signal;HPM_P1;HPM_P2
2023/12/26 00:02:02;;;;;;;0.25;0.25;;;;;;;17.01;77.02;100347.38;5049735;28;20021;-76
2023/12/26 00:04:27;;;;;;;0.20;0.20;;;;;;;16.80;78.61;100348.56;5032565;28;20381;-77
2023/12/26 00:06:52;;;;;;;0.20;0.20;;;;;;;16.67;78.72;100356.22;5032458;28;20044;-76
2023/12/26 00:09:18;;;;;;;0.20;0.20;;;;;;;16.55;77.57;100360.31;5051204;28;20037;-78
2023/12/26 00:11:45;;;;;;;0.30;0.30;;;;;;;17.02;77.57;100359.88;5049601;28;20458;-78
2023/12/26 00:14:12;;;;;;;0.20;0.20;;;;;;;16.40;79.92;100354.91;5058929;28;20028;-76
2023/12/26 00:16:41;;;;;;;0.40;0.40;;;;;;;16.04;82.44;100353.38;5048874;28;20132;-75
2023/12/26 00:19:06;;;;;;;0.20;0.20;;;;;;;17.06;78.22;100356.31;5050484;28;20097;-74
2023/12/26 00:21:31;;;;;;;0.30;0.30;;;;;;;15.98;83.07;100363.38;5054404;28;20116;-79
2023/12/26 00:23:57;;;;;;;0.10;0.10;;;;;;;16.23;81.56;100349.81;5026595;28;20838;-77
2023/12/26 00:26:23;;;;;;;0.20;0.20;;;;;;;16.11;83.98;100357.41;5051365;28;20035;-77
2023/12/26 00:28:48;;;;;;;0.20;0.20;;;;;;;16.34;83.23;100351.41;5052226;28;20059;-76
2023/12/26 00:31:14;;;;;;;0.20;0.20;;;;;;;16.21;82.73;100359.31;5059529;28;20109;-75
2023/12/26 00:33:39;;;;;;;0.20;0.20;;;;;;;16.35;81.88;100342.16;5041526;28;20033;-74
2023/12/26 00:36:05;;;;;;;0.13;0.13;;;;;;;16.57;80.99;100352.72;5060364;28;20040;-76
2023/12/26 00:38:30;;;;;;;0.20;0.20;;;;;;;16.28;82.25;100349.78;5066512;28;20102;-78
2023/12/26 00:40:56;;;;;;;0.20;0.20;;;;;;;15.93;84.08;100347.13;5072064;28;20028;-77
2023/12/26 00:43:21;;;;;;;0.25;0.25;;;;;;;16.00;83.54;100355.78;5072124;28;20123;-77
2023/12/26 00:45:47;;;;;;;0.25;0.25;;;;;;;15.76;84.22;100352.03;5072953;28;20033;-73
2023/12/26 00:48:12;;;;;;;0.22;0.22;;;;;;;16.32;83.15;100367.13;5055324;28;20103;-77
2023/12/26 00:50:41;;;;;;;0.20;0.20;;;;;;;15.61;84.22;100349.28;5037855;28;20501;-72
2023/12/26 00:53:08;;;;;;;0.20;0.20;;;;;;;15.96;84.15;100353.91;5057916;28;20048;-75
2023/12/26 00:55:34;;;;;;;0.10;0.10;;;;;;;15.96;83.21;100348.50;5058373;28;20033;-75
2023/12/26 00:57:59;;;;;;;0.20;0.20;;;;;;;15.85;82.99;100372.06;5042933;28;20039;-81
2023/12/26 01:00:25;;;;;;;0.20;0.20;;;;;;;16.50;80.78;100374.72;5057562;28;20029;-74
2023/12/26 01:02:51;;;;;;;0.30;0.30;;;;;;;15.79;83.42;100365.00;5057404;28;20025;-75
2023/12/26 01:05:16;;;;;;;0.30;0.30;;;;;;;16.31;81.73;100340.31;5058096;28;20048;-76
2023/12/26 01:07:42;;;;;;;0.17;0.17;;;;;;;16.21;81.92;100351.16;5055840;28;20430;-74
2023/12/26 01:10:07;;;;;;;0.28;0.28;;;;;;;16.31;81.95;100353.84;5054932;28;20044;-74
2023/12/26 01:12:33;;;;;;;0.22;0.22;;;;;;;16.04;82.53;100361.50;5055404;28;20037;-76
2023/12/26 01:14:58;;;;;;;0.20;0.20;;;;;;;16.10;82.21;100368.50;5055636;28;20021;-75
2023/12/26 01:17:23;;;;;;;0.30;0.30;;;;;;;16.01;83.10;100373.69;5038077;28;20039;-73
2023/12/26 01:19:49;;;;;;;0.40;0.40;;;;;;;15.94;82.25;100380.47;5055151;28;20029;-80
2023/12/26 01:22:14;;;;;;;0.15;0.15;;;;;;;16.65;79.34;100379.28;5055296;28;20412;-75
2023/12/26 01:24:40;;;;;;;0.20;0.20;;;;;;;16.74;79.57;100382.25;5055170;28;20489;-76
2023/12/26 01:27:05;;;;;;;0.20;0.20;;;;;;;16.62;79.37;100390.69;5036490;28;20052;-75
2023/12/26 01:29:30;;;;;;;0.30;0.30;;;;;;;16.50;79.80;100393.72;5063019;28;20047;-76
2023/12/26 01:31:56;;;;;;;0.20;0.20;;;;;;;16.25;80.64;100401.88;5076450;28;20029;-75
2023/12/26 01:34:21;;;;;;;0.30;0.30;;;;;;;16.71;78.49;100407.22;5075916;28;20036;-75
2023/12/26 01:36:47;;;;;;;0.20;0.20;;;;;;;16.47;79.07;100415.91;5076258;28;20094;-75
2023/12/26 01:39:14;;;;;;;0.20;0.20;;;;;;;16.88;78.01;100427.53;5076463;28;20032;-74
2023/12/26 01:41:39;;;;;;;0.30;0.30;;;;;;;17.01;77.61;100426.09;5076744;28;20408;-74
2023/12/26 01:44:05;;;;;;;0.20;0.20;;;;;;;16.49;79.06;100434.69;5075848;28;20048;-74
2023/12/26 01:46:30;;;;;;;0.20;0.20;;;;;;;16.46;77.91;100437.91;5075452;28;20043;-75
2023/12/26 01:48:56;;;;;;;0.28;0.28;;;;;;;16.56;77.51;100440.63;5056606;28;20028;-74
2023/12/26 01:51:22;;;;;;;0.30;0.30;;;;;;;16.11;76.29;100446.88;5074297;28;20044;-73
2023/12/26 01:53:49;;;;;;;0.17;0.17;;;;;;;15.81;77.80;100453.09;5075563;28;20025;-73
2023/12/26 01:56:15;;;;;;;0.20;0.20;;;;;;;16.34;76.75;100443.59;5076624;28;20028;-76
2023/12/26 01:58:43;;;;;;;0.20;0.20;;;;;;;16.43;75.79;100444.66;5074678;28;20044;-76
2023/12/26 02:01:10;;;;;;;0.20;0.20;;;;;;;16.74;73.74;100459.03;5074355;28;20036;-75
2023/12/26 02:03:36;;;;;;;0.20;0.20;;;;;;;16.59;75.03;100462.59;5075476;28;20423;-76
2023/12/26 02:06:01;;;;;;;0.28;0.28;;;;;;;16.73;74.41;100462.84;5073369;28;20079;-76
2023/12/26 02:08:28;;;;;;;0.20;0.20;;;;;;;15.96;75.81;100465.03;5076063;28;20024;-74
2023/12/26 02:10:53;;;;;;;0.20;0.20;;;;;;;16.52;73.25;100456.66;5075803;28;20090;-75
2023/12/26 02:13:19;;;;;;;0.40;0.40;;;;;;;16.41;74.19;100471.25;5075546;28;20041;-76
2023/12/26 02:15:47;;;;;;;0.20;0.20;;;;;;;15.88;75.95;100470.97;5075321;28;20037;-75
2023/12/26 02:18:13;;;;;;;0.38;0.38;;;;;;;15.67;75.59;100467.41;5073530;28;20892;-75
2023/12/26 02:20:39;;;;;;;0.40;0.40;;;;;;;16.29;74.54;100462.59;5073889;28;20028;-75
2023/12/26 02:23:04;;;;;;;0.40;0.40;;;;;;;15.97;74.52;100466.63;5074034;28;20094;-74
2023/12/26 02:25:30;;;;;;;0.28;0.28;;;;;;;15.87;74.96;100466.63;5073334;28;20032;-74
2023/12/26 02:27:56;;;;;;;0.20;0.20;;;;;;;15.90;74.79;100477.72;5072854;28;20393;-76
2023/12/26 02:30:23;;;;;;;0.20;0.20;;;;;;;16.38;71.71;100471.81;5071917;28;20488;-76
2023/12/26 02:32:49;;;;;;;0.38;0.38;;;;;;;15.74;75.08;100489.66;5073639;28;20447;-75
2023/12/26 02:35:15;;;;;;;0.30;0.30;;;;;;;16.46;72.98;100489.44;5073594;28;20123;-76
2023/12/26 02:37:41;;;;;;;0.20;0.20;;;;;;;16.56;71.44;100503.84;5073307;28;20032;-77
2023/12/26 02:40:07;;;;;;;0.30;0.30;;;;;;;16.65;72.10;100518.47;5072887;28;20516;-76
2023/12/26 02:42:33;;;;;;;0.30;0.30;;;;;;;16.74;72.25;100520.63;5055361;28;20116;-76
2023/12/26 02:44:58;;;;;;;0.30;0.30;;;;;;;16.48;71.90;100517.09;5073201;28;20046;-77
2023/12/26 02:47:24;;;;;;;0.30;0.30;;;;;;;16.92;71.00;100529.03;5069106;28;20035;-76
2023/12/26 02:49:50;;;;;;;0.32;0.32;;;;;;;16.24;74.32;100529.56;5052892;28;20067;-75
2023/12/26 02:52:16;;;;;;;0.20;0.20;;;;;;;17.00;71.40;100523.03;5034515;28;20037;-75
2023/12/26 02:54:41;;;;;;;0.15;0.15;;;;;;;17.07;71.42;100517.31;5052325;28;20029;-76
2023/12/26 02:57:07;;;;;;;0.20;0.20;;;;;;;16.21;72.72;100520.09;5052035;28;20039;-76
2023/12/26 02:59:32;;;;;;;0.30;0.30;;;;;;;16.85;71.62;100509.50;5052277;28;20303;-75
2023/12/26 03:01:58;;;;;;;0.20;0.20;;;;;;;16.69;72.33;100506.00;5050611;28;20086;-77
2023/12/26 03:04:23;;;;;;;0.10;0.10;;;;;;;16.29;74.30;100522.25;5027760;28;20037;-75
2023/12/26 03:06:49;;;;;;;0.10;0.10;;;;;;;16.45;72.99;100517.66;5052895;28;20530;-75
2023/12/26 03:09:14;;;;;;;0.40;0.40;;;;;;;16.29;74.44;100516.00;5052160;28;20546;-75
2023/12/26 03:11:40;;;;;;;0.10;0.10;;;;;;;16.63;72.48;100517.94;5053937;28;20025;-74
2023/12/26 03:14:06;;;;;;;0.30;0.30;;;;;;;16.34;73.11;100527.66;5053276;28;20025;-74
2023/12/26 03:16:31;;;;;;;0.20;0.20;;;;;;;15.49;77.33;100538.28;5053731;28;20025;-75
2023/12/26 03:18:56;;;;;;;0.20;0.20;;;;;;;16.30;73.53;100547.44;5052582;28;20052;-75
2023/12/26 03:21:22;;;;;;;0.20;0.20;;;;;;;16.10;74.14;100550.94;5034041;28;20090;-75
2023/12/26 03:23:48;;;;;;;0.20;0.20;;;;;;;16.28;73.23;100546.91;5052420;28;20025;-74
2023/12/26 03:26:13;;;;;;;0.20;0.20;;;;;;;16.21;72.75;100543.66;5034023;28;20056;-73
2023/12/26 03:28:39;;;;;;;0.20;0.20;;;;;;;16.35;72.30;100556.41;5052044;28;20163;-73
2023/12/26 03:31:06;;;;;;;0.20;0.20;;;;;;;16.54;71.73;100560.25;5052022;28;20087;-75
2023/12/26 03:33:32;;;;;;;0.20;0.20;;;;;;;16.39;71.49;100560.22;5052370;28;20374;-74
2023/12/26 03:35:57;;;;;;;0.30;0.30;;;;;;;16.06;71.88;100560.69;5034094;28;20059;-74
2023/12/26 03:38:23;;;;;;;0.40;0.40;;;;;;;16.43;70.85;100560.50;5052596;28;20028;-74
2023/12/26 03:40:48;;;;;;;0.30;0.30;;;;;;;16.16;70.43;100565.31;5052990;28;20666;-74
2023/12/26 03:43:16;;;;;;;0.20;0.20;;;;;;;15.97;71.94;100569.63;5053071;28;20412;-74
2023/12/26 03:45:42;;;;;;;0.20;0.20;;;;;;;16.57;69.83;100580.59;5069083;28;20040;-75
2023/12/26 03:48:07;;;;;;;0.20;0.20;;;;;;;14.50;73.21;100629.31;5074484;28;20027;-76
2023/12/26 03:50:32;;;;;;;0.20;0.20;;;;;;;13.79;69.55;100625.81;5075681;28;20338;-80
2023/12/26 03:52:58;;;;;;;0.40;0.40;;;;;;;13.59;70.59;100635.53;5074818;28;20078;-75
2023/12/26 03:55:23;;;;;;;0.50;0.50;;;;;;;14.24;67.97;100616.59;5073254;28;20036;-76
2023/12/26 03:57:49;;;;;;;0.30;0.30;;;;;;;13.59;69.35;100609.34;5073751;28;20537;-75
2023/12/26 04:00:15;;;;;;;0.30;0.30;;;;;;;13.93;69.16;100600.06;5073891;28;20048;-77
2023/12/26 04:02:41;;;;;;;0.32;0.32;;;;;;;14.93;66.42;100605.63;5074448;28;20031;-77
2023/12/26 04:05:08;;;;;;;0.30;0.30;;;;;;;14.69;66.96;100596.25;5055145;28;20044;-76
2023/12/26 04:07:33;;;;;;;0.30;0.30;;;;;;;14.43;67.15;100620.59;5074371;28;20044;-78
2023/12/26 04:09:59;;;;;;;0.20;0.20;;;;;;;14.57;67.11;100613.69;5074462;28;20036;-74
2023/12/26 04:12:24;;;;;;;0.20;0.20;;;;;;;14.78;66.79;100627.13;5074200;28;20512;-76
2023/12/26 04:14:50;;;;;;;0.40;0.40;;;;;;;14.78;67.02;100635.25;5073366;28;20106;-75
2023/12/26 04:17:16;;;;;;;0.30;0.30;;;;;;;15.43;64.21;100626.81;5073899;28;20045;-75
2023/12/26 04:19:42;;;;;;;0.20;0.20;;;;;;;15.65;62.84;100632.09;5073464;28;20041;-75
2023/12/26 04:22:09;;;;;;;0.20;0.20;;;;;;;15.37;65.80;100627.84;5072078;28;20033;-76
2023/12/26 04:24:34;;;;;;;0.20;0.20;;;;;;;15.67;65.55;100632.66;5055911;28;20477;-75
2023/12/26 04:27:00;;;;;;;0.22;0.22;;;;;;;16.10;63.02;100648.53;5077283;28;20123;-76
2023/12/26 04:29:25;;;;;;;0.30;0.30;;;;;;;16.19;63.20;100649.69;5077517;28;20036;-75
2023/12/26 04:31:50;;;;;;;0.17;0.17;;;;;;;15.87;64.63;100646.28;5077297;28;20048;-75
2023/12/26 04:34:16;;;;;;;0.22;0.22;;;;;;;15.88;66.16;100650.63;5077233;28;20079;-74
2023/12/26 04:36:41;;;;;;;0.28;0.28;;;;;;;16.52;63.08;100646.53;5076258;28;20078;-74
2023/12/26 04:39:07;;;;;;;0.30;0.30;;;;;;;15.60;66.40;100643.72;5076882;28;20033;-74
2023/12/26 04:41:32;;;;;;;0.30;0.30;;;;;;;16.66;64.63;100655.78;5055346;28;20032;-74
2023/12/26 04:43:58;;;;;;;0.30;0.30;;;;;;;15.23;68.25;100664.59;5075997;28;20399;-73
2023/12/26 04:46:23;;;;;;;0.30;0.30;;;;;;;15.64;66.40;100663.81;5076050;28;20033;-74
2023/12/26 04:48:49;;;;;;;0.30;0.30;;;;;;;15.68;66.69;100666.81;5076026;28;20047;-73
2023/12/26 04:51:18;;;;;;;0.20;0.20;;;;;;;15.83;66.26;100667.69;5076116;28;20028;-75
2023/12/26 04:53:47;;;;;;;0.25;0.25;;;;;;;16.22;64.28;100678.13;5076688;28;20108;-75
2023/12/26 04:56:17;;;;;;;0.32;0.32;;;;;;;15.77;66.12;100676.88;5072258;28;20059;-74
2023/12/26 04:58:44;;;;;;;0.30;0.30;;;;;;;15.81;65.50;100686.09;5061180;28;20033;-74
2023/12/26 05:01:09;;;;;;;0.40;0.40;;;;;;;15.17;68.55;100681.03;5074499;28;20463;-77
2023/12/26 05:03:35;;;;;;;0.20;0.20;;;;;;;15.00;67.96;100692.00;5076585;28;20032;-76
2023/12/26 05:06:00;;;;;;;0.40;0.40;;;;;;;15.79;65.32;100693.69;5075966;28;20036;-75
2023/12/26 05:08:26;;;;;;;0.30;0.30;;;;;;;14.90;65.69;100695.44;5058115;28;20032;-75
2023/12/26 05:10:51;;;;;;;0.38;0.38;;;;;;;15.51;63.93;100701.34;5071662;28;20040;-75
2023/12/26 05:13:17;;;;;;;0.30;0.30;;;;;;;15.11;64.89;100695.59;5075003;28;20039;-74
2023/12/26 05:15:42;;;;;;;0.20;0.20;;;;;;;14.75;64.78;100697.19;5050968;28;20374;-73
2023/12/26 05:18:07;;;;;;;0.40;0.38;;;;;;;15.68;63.43;100699.31;5075106;28;20166;-75
2023/12/26 05:20:33;;;;;;;0.30;0.30;;;;;;;15.37;63.59;100706.38;5075991;28;20418;-75
2023/12/26 05:22:58;;;;;;;0.30;0.30;;;;;;;14.96;64.89;100715.22;5075437;28;20025;-74
2023/12/26 05:25:24;;;;;;;0.30;0.30;;;;;;;14.96;64.26;100721.47;5075331;28;20075;-74
2023/12/26 05:27:50;;;;;;;0.20;0.20;;;;;;;15.57;62.04;100743.63;5075069;28;20042;-74
2023/12/26 05:30:15;;;;;;;0.40;0.40;;;;;;;15.03;64.44;100744.78;5063760;28;20436;-75
2023/12/26 05:32:41;;;;;;;0.30;0.30;;;;;;;15.05;65.03;100734.53;5056000;28;20041;-74
2023/12/26 05:35:06;;;;;;;0.20;0.20;;;;;;;14.41;66.62;100747.09;5055233;28;20067;-74
2023/12/26 05:37:32;;;;;;;0.40;0.40;;;;;;;14.30;67.63;100753.47;5055091;28;20507;-74
2023/12/26 05:39:57;;;;;;;0.30;0.30;;;;;;;14.48;66.52;100763.97;5055135;28;20136;-76
2023/12/26 05:42:23;;;;;;;0.30;0.30;;;;;;;15.02;65.80;100757.50;5055504;28;20121;-74
2023/12/26 05:44:49;;;;;;;0.20;0.20;;;;;;;14.78;67.13;100770.50;5037281;28;20115;-73
2023/12/26 05:47:14;;;;;;;0.30;0.30;;;;;;;15.34;64.71;100776.47;5075443;28;20469;-74
2023/12/26 05:49:40;;;;;;;0.40;0.40;;;;;;;14.78;65.74;100784.03;5074706;28;20404;-75
2023/12/26 05:52:05;;;;;;;0.20;0.20;;;;;;;14.79;66.69;100788.41;5074982;28;20156;-74
2023/12/26 05:54:31;;;;;;;0.30;0.30;;;;;;;15.36;64.73;100802.22;5076420;28;20163;-74
2023/12/26 05:56:56;;;;;;;0.20;0.20;;;;;;;15.10;65.31;100808.47;5076052;28;20036;-75
2023/12/26 05:59:22;;;;;;;0.20;0.20;;;;;;;15.22;64.99;100806.41;5076357;28;20032;-75
2023/12/26 06:01:47;;;;;;;0.30;0.30;;;;;;;14.38;66.32;100797.09;5075346;28;20036;-72
2023/12/26 06:04:13;;;;;;;0.30;0.30;;;;;;;14.98;64.90;100814.03;5074791;28;20128;-74
2023/12/26 06:06:38;;;;;;;0.40;0.40;;;;;;;14.65;65.91;100816.06;5076433;28;20044;-74
2023/12/26 06:09:04;;;;;;;0.30;0.30;;;;;;;14.16;66.93;100819.72;5076040;28;20028;-73
2023/12/26 06:11:29;;;;;;;0.20;0.20;;;;;;;14.72;65.95;100822.94;5076760;28;20079;-74
2023/12/26 06:13:54;;;;;;;0.17;0.17;;;;;;;14.51;65.77;100831.03;5077219;28;20040;-75
2023/12/26 06:16:20;;;;;;;0.20;0.20;;;;;;;14.53;65.90;100831.59;5076557;28;20362;-73
2023/12/26 06:18:45;;;;;;;0.50;0.50;;;;;;;14.82;64.91;100838.44;5075965;28;20085;-74
2023/12/26 06:21:11;;;;;;;0.20;0.20;;;;;;;14.98;64.12;100841.09;5075272;28;20488;-74
2023/12/26 06:23:36;;;;;;;0.30;0.30;;;;;;;14.77;64.73;100841.13;5075993;28;20036;-75
2023/12/26 06:26:02;;;;;;;0.20;0.20;;;;;;;14.95;62.53;100851.63;5075651;28;20044;-76
2023/12/26 06:28:27;;;;;;;0.40;0.40;;;;;;;14.72;64.42;100857.28;5075256;28;20035;-73
2023/12/26 06:30:53;;;;;;;0.10;0.10;;;;;;;15.23;61.88;100855.97;5075259;28;20041;-74
2023/12/26 06:33:19;;;;;;;0.30;0.30;;;;;;;14.85;62.85;100857.72;5075199;28;20110;-74
2023/12/26 06:35:45;;;;;;;0.20;0.20;;;;;;;15.16;63.60;100875.13;5076024;28;20084;-74
2023/12/26 06:38:13;;;;;;;0.30;0.30;;;;;;;14.95;62.92;100874.09;5075109;28;20040;-76
2023/12/26 06:40:39;;;;;;;0.25;0.25;;;;;;;14.86;62.40;100866.63;5074778;28;20123;-73
2023/12/26 06:43:06;;;;;;;0.30;0.30;;;;;;;14.07;65.21;100889.59;5075771;28;20124;-75
2023/12/26 06:45:31;;;;;;;0.30;0.30;;;;;;;14.85;63.08;100883.97;5041307;28;20395;-74
2023/12/26 06:47:57;;;;;;;0.38;0.38;;;;;;;14.76;62.43;100904.41;5073358;28;20085;-73
2023/12/26 06:50:22;;;;;;;0.20;0.20;;;;;;;14.59;63.27;100896.34;5074996;28;20115;-74
2023/12/26 06:52:48;;;;;;;0.30;0.30;;;;;;;14.93;61.07;100897.06;5074262;28;20127;-73
2023/12/26 06:55:13;;;;;;;0.30;0.30;;;;;;;14.86;61.58;100899.09;5074410;28;20036;-75
2023/12/26 06:57:39;;;;;;;0.40;0.40;;;;;;;15.21;61.54;100887.91;5074497;28;20056;-74
2023/12/26 07:00:05;;;;;;;0.20;0.20;;;;;;;14.75;61.87;100876.53;5073358;28;20111;-74
2023/12/26 07:02:32;;;;;;;0.30;0.30;;;;;;;15.14;61.23;100904.31;5075345;28;20036;-73
2023/12/26 07:04:57;;;;;;;0.30;0.30;;;;;;;14.68;62.02;100905.66;5074425;28;20140;-74
2023/12/26 07:07:23;;;;;;;0.30;0.30;;;;;;;14.50;62.88;100903.25;5075789;28;20068;-74
2023/12/26 07:09:48;;;;;;;0.20;0.20;;;;;;;15.01;62.09;100906.59;5075754;28;20028;-75
2023/12/26 07:12:14;;;;;;;0.22;0.22;;;;;;;14.77;61.70;100922.28;5075506;28;20090;-75
2023/12/26 07:14:39;;;;;;;0.20;0.20;;;;;;;14.88;61.92;100907.78;5057449;28;20032;-73
2023/12/26 07:17:04;;;;;;;0.40;0.40;;;;;;;14.46;62.46;100912.94;5076136;28;20484;-74
2023/12/26 07:19:30;;;;;;;0.30;0.30;;;;;;;14.57;62.44;100930.94;5076267;28;20048;-72
2023/12/26 07:21:55;;;;;;;0.22;0.22;;;;;;;14.74;62.10;100926.28;5075746;28;20581;-71
2023/12/26 07:24:21;;;;;;;0.30;0.30;;;;;;;14.87;61.61;100934.06;5076642;28;20101;-74
2023/12/26 07:26:47;;;;;;;0.20;0.20;;;;;;;15.04;61.30;100931.28;5077035;28;20036;-74
2023/12/26 07:29:12;;;;;;;0.20;0.20;;;;;;;14.77;61.52;100946.63;5057920;28;20029;-75
2023/12/26 07:31:39;;;;;;;0.30;0.30;;;;;;;14.67;62.12;100950.00;5075228;28;20063;-76
2023/12/26 07:34:08;;;;;;;0.20;0.20;;;;;;;13.71;65.33;100947.63;5075818;28;20040;-74
2023/12/26 07:36:37;;;;;;;0.25;0.25;;;;;;;14.15;65.24;100953.22;5075933;28;20059;-72
2023/12/26 07:39:03;;;;;;;0.22;0.22;;;;;;;13.49;65.86;100957.47;5075129;28;20025;-74
2023/12/26 07:41:28;;;;;;;0.30;0.30;;;;;;;14.14;63.99;100974.03;5075548;28;20054;-75
2023/12/26 07:43:54;;;;;;;0.20;0.20;;;;;;;14.99;61.23;100961.00;5074327;28;20485;-73
2023/12/26 07:46:20;;;;;;;0.30;0.30;;;;;;;14.58;63.82;100962.31;5075297;28;20088;-73
2023/12/26 07:48:47;;;;;;;0.22;0.22;;;;;;;14.21;62.23;100965.75;5057026;28;20036;-72
2023/12/26 07:51:12;;;;;;;0.22;0.22;;;;;;;14.33;62.47;100983.56;5056836;28;20414;-74
2023/12/26 07:53:38;;;;;;;0.30;0.30;;;;;;;14.24;63.00;100973.38;5057619;28;20100;-72
2023/12/26 07:56:03;;;;;;;0.40;0.40;;;;;;;14.23;62.34;100979.84;5056997;28;20037;-74
2023/12/26 07:58:29;;;;;;;0.20;0.20;;;;;;;14.80;61.22;100986.72;5055069;28;20040;-72
2023/12/26 08:00:54;;;;;;;0.22;0.22;;;;;;;14.46;62.57;100993.22;5055843;28;20036;-74
2023/12/26 08:03:20;;;;;;;0.28;0.28;;;;;;;14.34;62.62;101011.41;5074785;28;20056;-74
2023/12/26 08:05:45;;;;;;;0.22;0.22;;;;;;;14.33;62.85;101004.38;5074617;28;20082;-77
2023/12/26 08:08:48;;;;;;;0.20;0.20;;;;;;;14.51;62.80;101009.50;5073016;28;20550;-74
2023/12/26 08:11:13;;;;;;;0.25;0.25;;;;;;;14.52;61.81;101025.50;5072935;28;20485;-74
2023/12/26 08:13:38;;;;;;;0.32;0.32;;;;;;;14.13;62.86;101023.75;5073160;28;20086;-75
2023/12/26 08:16:05;;;;;;;0.32;0.32;;;;;;;14.23;61.92;101013.09;5072137;28;20197;-74
2023/12/26 08:18:30;;;;;;;0.30;0.30;;;;;;;14.22;62.54;101029.56;5070687;28;20032;-76
2023/12/26 08:20:56;;;;;;;0.38;0.38;;;;;;;14.99;59.88;101031.34;5070333;28;20502;-75
2023/12/26 08:23:21;;;;;;;0.40;0.40;;;;;;;14.12;62.72;101027.50;5051300;28;20041;-76
2023/12/26 08:25:47;;;;;;;0.30;0.30;;;;;;;14.05;62.27;101033.03;5070196;28;20048;-78
2023/12/26 08:28:12;;;;;;;0.35;0.35;;;;;;;13.85;63.31;101035.41;5063203;28;20041;-74
2023/12/26 08:30:39;;;;;;;0.20;0.20;;;;;;;14.01;63.44;101053.50;5059776;28;20804;-76
2023/12/26 08:33:04;;;;;;;0.40;0.40;;;;;;;14.04;63.06;101058.44;5058712;28;20025;-77
2023/12/26 08:35:31;;;;;;;0.30;0.30;;;;;;;14.73;61.33;101062.63;5060321;28;20032;-73
2023/12/26 08:37:56;;;;;;;0.20;0.20;;;;;;;14.15;62.94;101072.97;5060278;28;20373;-75
2023/12/26 08:40:23;;;;;;;0.30;0.30;;;;;;;13.78;63.56;101069.81;5058966;28;20033;-77
2023/12/26 08:42:48;;;;;;;0.35;0.35;;;;;;;14.72;61.06;101077.19;5061584;28;20040;-75
2023/12/26 08:45:14;;;;;;;0.30;0.30;;;;;;;15.34;58.92;101085.16;5063205;28;20373;-75
2023/12/26 08:47:39;;;;;;;0.30;0.30;;;;;;;14.10;61.90;101079.09;5061478;28;20042;-75
2023/12/26 08:50:05;;;;;;;0.20;0.20;;;;;;;14.51;60.71;101086.06;5058906;28;20389;-72
2023/12/26 08:52:31;;;;;;;0.30;0.30;;;;;;;14.27;61.37;101095.31;5062100;28;20033;-74
2023/12/26 08:54:56;;;;;;;0.25;0.25;;;;;;;14.79;60.33;101098.69;5062258;28;20389;-73
2023/12/26 08:57:22;;;;;;;0.30;0.30;;;;;;;14.81;59.41;101102.78;5066377;28;20086;-78
2023/12/26 08:59:47;;;;;;;0.10;0.10;;;;;;;14.75;60.16;101105.66;5062319;28;20562;-71
2023/12/26 09:02:13;;;;;;;0.20;0.20;;;;;;;14.77;60.63;101109.75;5059933;28;20401;-75
2023/12/26 09:04:38;;;;;;;0.10;0.10;;;;;;;15.21;59.27;101121.53;5042306;28;20488;-72
2023/12/26 09:07:03;;;;;;;0.20;0.20;;;;;;;14.52;61.53;101120.16;5062512;28;20044;-73
2023/12/26 09:09:29;;;;;;;0.30;0.30;;;;;;;14.76;61.06;101124.34;5057830;28;20032;-73
2023/12/26 09:11:56;;;;;;;0.40;0.40;;;;;;;14.28;63.46;101126.75;5063793;28;20416;-72
2023/12/26 09:14:22;;;;;;;0.20;0.20;;;;;;;15.03;59.62;101137.22;5064419;28;20024;-72
2023/12/26 09:16:47;;;;;;;0.20;0.20;;;;;;;14.15;62.58;101143.25;5065282;28;20036;-73
2023/12/26 09:19:13;;;;;;;0.50;0.50;;;;;;;15.02;61.82;101136.38;5046539;28;20044;-71
2023/12/26 09:21:38;;;;;;;0.30;0.30;;;;;;;14.61;61.48;101151.16;5046629;28;20106;-72
2023/12/26 09:24:04;;;;;;;0.28;0.28;;;;;;;14.41;62.21;101148.06;5061499;28;20028;-74
2023/12/26 09:26:30;;;;;;;0.30;0.30;;;;;;;14.38;63.07;101153.16;5059030;28;20048;-71
2023/12/26 09:28:56;;;;;;;0.30;0.30;;;;;;;14.84;61.66;101169.09;5064932;28;20063;-72
2023/12/26 09:31:21;;;;;;;0.20;0.20;;;;;;;15.04;60.62;101169.44;5045646;28;20079;-72
2023/12/26 09:33:47;;;;;;;0.20;0.20;;;;;;;15.20;60.21;101165.91;5061271;28;20044;-72
2023/12/26 09:36:12;;;;;;;0.28;0.28;;;;;;;15.47;59.39;101191.25;5066787;28;20490;-72
2023/12/26 09:38:38;;;;;;;0.30;0.30;;;;;;;14.36;61.99;101185.84;5065213;28;20528;-72
2023/12/26 09:41:05;;;;;;;0.10;0.10;;;;;;;14.68;60.69;101194.28;5039936;28;20049;-72
2023/12/26 09:43:31;;;;;;;0.20;0.20;;;;;;;15.31;59.18;101202.91;5055850;28;20043;-73
2023/12/26 09:45:56;;;;;;;0.20;0.20;;;;;;;15.91;57.71;101200.28;5052887;28;20049;-72
2023/12/26 09:48:23;;;;;;;0.50;0.50;;;;;;;15.00;59.36;101202.69;5054722;28;20037;-71
2023/12/26 09:50:53;;;;;;;0.32;0.32;;;;;;;14.80;59.38;101203.94;5046383;28;20067;-72
2023/12/26 09:53:22;;;;;;;0.30;0.30;;;;;;;15.48;58.15;101202.94;5063329;28;20025;-71
2023/12/26 09:55:49;;;;;;;0.30;0.30;;;;;;;16.03;57.00;101221.84;5070139;28;20036;-71
2023/12/26 09:58:15;;;;;;;0.20;0.20;;;;;;;15.89;56.52;101220.56;5071719;28;20051;-72
2023/12/26 10:00:41;;;;;;;0.40;0.40;;;;;;;15.03;58.38;101224.66;5063043;28;20040;-70
2023/12/26 10:03:07;;;;;;;0.30;0.30;;;;;;;14.99;59.52;101245.16;5044695;28;20037;-71
2023/12/26 10:05:33;;;;;;;0.40;0.40;;;;;;;15.66;56.81;101221.63;5068809;28;20049;-71
2023/12/26 10:07:58;;;;;;;0.30;0.30;;;;;;;15.10;58.29;101240.72;5064392;28;20383;-72
2023/12/26 10:10:24;;;;;;;0.20;0.20;;;;;;;15.64;56.81;101240.00;5061414;28;20037;-73
2023/12/26 10:12:53;;;;;;;0.30;0.30;;;;;;;14.78;59.24;101233.13;5067424;28;20032;-70
2023/12/26 10:15:18;;;;;;;0.20;0.20;;;;;;;14.58;60.20;101226.56;5066222;28;20048;-71
2023/12/26 10:17:44;;;;;;;0.30;0.30;;;;;;;15.23;58.58;101240.41;5063321;28;20029;-71
2023/12/26 10:20:19;;;;;;;0.20;0.20;;;;;;;14.70;60.40;101238.13;5045786;28;20044;-72
2023/12/26 10:22:45;;;;;;;0.20;0.20;;;;;;;15.51;57.34;101243.03;5062448;28;20037;-70
2023/12/26 10:25:14;;;;;;;0.10;0.10;;;;;;;15.02;58.77;101254.69;5044846;28;20051;-71
2023/12/26 10:27:40;;;;;;;0.20;0.20;;;;;;;15.72;57.45;101256.66;5045511;28;20060;-70
2023/12/26 10:30:07;;;;;;;0.22;0.22;;;;;;;15.24;57.64;101261.81;5062707;28;20068;-72
2023/12/26 10:32:33;;;;;;;0.30;0.30;;;;;;;15.33;57.33;101264.97;5064544;28;20032;-72
2023/12/26 10:35:14;;;;;;;0.20;0.20;;;;;;;15.88;57.14;101260.41;5059760;28;20139;-71
2023/12/26 10:37:40;;;;;;;0.10;0.10;;;;;;;15.57;57.57;101261.03;5061568;28;20469;-72
2023/12/26 10:40:06;;;;;;;0.20;0.20;;;;;;;15.38;58.45;101270.44;5062182;28;20051;-69
2023/12/26 10:42:31;;;;;;;0.30;0.30;;;;;;;15.46;57.18;101276.31;5062851;28;20577;-73
2023/12/26 10:45:04;;;;;;;0.20;0.20;;;;;;;15.56;57.58;101265.66;5060486;28;20074;-70
2023/12/26 10:47:31;;;;;;;0.30;0.30;;;;;;;15.14;59.12;101279.78;5062339;28;20032;-72
2023/12/26 10:50:01;;;;;;;0.20;0.20;;;;;;;15.08;58.80;101278.03;5061842;28;20430;-71
2023/12/26 10:52:27;;;;;;;0.25;0.25;;;;;;;15.09;59.65;101296.78;5060563;28;20045;-71
2023/12/26 10:54:59;;;;;;;0.30;0.30;;;;;;;15.22;59.70;101288.31;5045166;28;20453;-72
2023/12/26 10:57:25;;;;;;;0.40;0.40;;;;;;;15.93;57.79;101290.31;5059973;28;20045;-72
2023/12/26 13:53:16;;;;;;;0.38;0.38;;;;;;;15.87;57.17;101510.00;5071956;28;20044;-71
2023/12/26 13:56:19;;;;;;;0.30;0.30;;;;;;;16.20;57.09;101512.75;5070195;28;20071;-72
2023/12/26 13:59:22;;;;;;;0.20;0.20;;;;;;;15.67;58.37;101524.00;5070534;28;20427;-72
2023/12/26 14:02:25;;;;;;;0.30;0.30;;;;;;;15.29;58.60;101529.19;5071008;28;20036;-72
2023/12/26 14:05:28;;;;;;;0.35;0.35;;;;;;;15.83;58.08;101544.91;5073739;28;20029;-72
2023/12/26 14:08:31;;;;;;;0.17;0.17;;;;;;;15.67;59.65;101542.97;5070609;28;20403;-72
2023/12/26 14:11:34;;;;;;;0.20;0.20;;;;;;;16.01;60.19;101544.72;5076744;28;20042;-72
2023/12/26 14:13:59;;;;;;;0.20;0.20;;;;;;;16.00;58.63;101542.25;5078622;28;20034;-72
2023/12/26 14:16:24;;;;;;;0.32;0.32;;;;;;;15.55;59.11;101548.44;5078038;28;20035;-71